sensor_id;sensor_type;location;lat;lon;timestamp;P1;durP1;ratioP1;P2;durP2;ratioP2
70049;SDS011;57391;51.306;22.680;2023-04-26T00:01:01;4.50;;;2.40;;
70049;SDS011;57391;51.306;22.680;2023-04-26T00:03:31;4.70;;;2.30;;
70049;SDS011;57391;51.306;22.680;2023-04-26T00:05:59;4.90;;;2.90;;
70049;SDS011;57391;51.306;22.680;2023-04-26T00:08:35;4.70;;;2.30;;
70049;SDS011;57391;51.306;22.680;2023-04-26T00:11:02;4.40;;;2.30;;
70049;SDS011;57391;51.306;22.680;2023-04-26T00:13:29;5.10;;;2.70;;
70049;SDS011;57391;51.306;22.680;2023-04-26T00:15:56;3.30;;;1.90;;
70049;SDS011;57391;51.306;22.680;2023-04-26T00:18:23;8.70;;;4.20;;
70049;SDS011;57391;51.306;22.680;2023-04-26T00:20:51;4.40;;;2.70;;
70049;SDS011;57391;51.306;22.680;2023-04-26T00:23:18;5.00;;;2.50;;
70049;SDS011;57391;51.306;22.680;2023-04-26T00:25:45;4.20;;;2.30;;
70049;SDS011;57391;51.306;22.680;2023-04-26T00:28:13;4.00;;;2.40;;
70049;SDS011;57391;51.306;22.680;2023-04-26T00:30:40;4.10;;;2.10;;
70049;SDS011;57391;51.306;22.680;2023-04-26T00:33:13;3.90;;;2.00;;
70049;SDS011;57391;51.306;22.680;2023-04-26T00:35:41;3.70;;;2.10;;
70049;SDS011;57391;51.306;22.680;2023-04-26T00:38:08;7.20;;;2.70;;
70049;SDS011;57391;51.306;22.680;2023-04-26T00:40:35;4.10;;;2.20;;
70049;SDS011;57391;51.306;22.680;2023-04-26T00:43:04;3.60;;;2.00;;
70049;SDS011;57391;51.306;22.680;2023-04-26T00:45:32;4.50;;;2.00;;
70049;SDS011;57391;51.306;22.680;2023-04-26T00:48:02;3.60;;;2.30;;
70049;SDS011;57391;51.306;22.680;2023-04-26T00:50:30;6.60;;;3.40;;
70049;SDS011;57391;51.306;22.680;2023-04-26T00:52:58;6.60;;;3.30;;
70049;SDS011;57391;51.306;22.680;2023-04-26T00:55:28;5.10;;;2.50;;
70049;SDS011;57391;51.306;22.680;2023-04-26T00:57:55;4.10;;;2.90;;
70049;SDS011;57391;51.306;22.680;2023-04-26T01:00:23;3.90;;;2.20;;
70049;SDS011;57391;51.306;22.680;2023-04-26T01:02:51;4.80;;;2.60;;
70049;SDS011;57391;51.306;22.680;2023-04-26T01:05:19;4.20;;;2.40;;
70049;SDS011;57391;51.306;22.680;2023-04-26T01:07:46;4.40;;;2.20;;
70049;SDS011;57391;51.306;22.680;2023-04-26T01:10:14;4.50;;;2.40;;
70049;SDS011;57391;51.306;22.680;2023-04-26T01:12:41;4.50;;;2.50;;
70049;SDS011;57391;51.306;22.680;2023-04-26T01:15:09;6.20;;;2.50;;
70049;SDS011;57391;51.306;22.680;2023-04-26T01:17:37;4.90;;;2.60;;
70049;SDS011;57391;51.306;22.680;2023-04-26T01:20:05;4.90;;;2.30;;
70049;SDS011;57391;51.306;22.680;2023-04-26T01:22:35;4.70;;;2.20;;
70049;SDS011;57391;51.306;22.680;2023-04-26T01:25:03;4.20;;;2.30;;
70049;SDS011;57391;51.306;22.680;2023-04-26T01:27:34;7.60;;;2.50;;
70049;SDS011;57391;51.306;22.680;2023-04-26T01:30:02;4.20;;;2.10;;
70049;SDS011;57391;51.306;22.680;2023-04-26T01:32:31;3.70;;;2.00;;
70049;SDS011;57391;51.306;22.680;2023-04-26T01:34:58;4.60;;;2.10;;
70049;SDS011;57391;51.306;22.680;2023-04-26T01:37:26;4.50;;;2.30;;
70049;SDS011;57391;51.306;22.680;2023-04-26T01:39:53;4.80;;;2.20;;
70049;SDS011;57391;51.306;22.680;2023-04-26T01:42:20;4.90;;;2.20;;
70049;SDS011;57391;51.306;22.680;2023-04-26T01:44:47;3.40;;;1.70;;
70049;SDS011;57391;51.306;22.680;2023-04-26T01:47:15;3.50;;;2.00;;
70049;SDS011;57391;51.306;22.680;2023-04-26T01:49:42;4.00;;;1.80;;
70049;SDS011;57391;51.306;22.680;2023-04-26T01:52:10;3.80;;;1.70;;
70049;SDS011;57391;51.306;22.680;2023-04-26T01:54:37;2.90;;;1.60;;
70049;SDS011;57391;51.306;22.680;2023-04-26T01:57:04;3.00;;;1.60;;
70049;SDS011;57391;51.306;22.680;2023-04-26T01:59:31;2.40;;;1.60;;
70049;SDS011;57391;51.306;22.680;2023-04-26T02:01:58;2.70;;;1.50;;
70049;SDS011;57391;51.306;22.680;2023-04-26T02:04:26;2.50;;;1.30;;
70049;SDS011;57391;51.306;22.680;2023-04-26T02:06:54;2.70;;;1.30;;
70049;SDS011;57391;51.306;22.680;2023-04-26T02:09:24;2.60;;;1.40;;
70049;SDS011;57391;51.306;22.680;2023-04-26T02:11:51;2.10;;;1.20;;
70049;SDS011;57391;51.306;22.680;2023-04-26T02:14:19;2.10;;;1.30;;
70049;SDS011;57391;51.306;22.680;2023-04-26T02:16:45;2.30;;;1.30;;
70049;SDS011;57391;51.306;22.680;2023-04-26T02:19:13;1.90;;;1.20;;
70049;SDS011;57391;51.306;22.680;2023-04-26T02:21:53;3.30;;;1.50;;
70049;SDS011;57391;51.306;22.680;2023-04-26T02:24:23;3.40;;;1.60;;
70049;SDS011;57391;51.306;22.680;2023-04-26T02:26:51;4.30;;;1.60;;
70049;SDS011;57391;51.306;22.680;2023-04-26T02:29:19;5.30;;;2.40;;
70049;SDS011;57391;51.306;22.680;2023-04-26T02:31:48;3.00;;;1.60;;
70049;SDS011;57391;51.306;22.680;2023-04-26T02:34:15;3.40;;;1.50;;
70049;SDS011;57391;51.306;22.680;2023-04-26T02:36:42;3.40;;;1.70;;
70049;SDS011;57391;51.306;22.680;2023-04-26T02:39:10;2.60;;;1.40;;
70049;SDS011;57391;51.306;22.680;2023-04-26T02:41:38;3.20;;;1.50;;
70049;SDS011;57391;51.306;22.680;2023-04-26T02:44:05;3.20;;;1.40;;
70049;SDS011;57391;51.306;22.680;2023-04-26T02:46:34;3.40;;;1.60;;
70049;SDS011;57391;51.306;22.680;2023-04-26T02:49:01;3.50;;;1.80;;
70049;SDS011;57391;51.306;22.680;2023-04-26T02:51:29;2.60;;;1.70;;
70049;SDS011;57391;51.306;22.680;2023-04-26T02:53:56;3.20;;;1.50;;
70049;SDS011;57391;51.306;22.680;2023-04-26T02:56:23;3.30;;;1.60;;
70049;SDS011;57391;51.306;22.680;2023-04-26T02:58:51;2.50;;;1.60;;
70049;SDS011;57391;51.306;22.680;2023-04-26T03:01:18;4.30;;;2.40;;
70049;SDS011;57391;51.306;22.680;2023-04-26T03:03:45;4.20;;;2.50;;
70049;SDS011;57391;51.306;22.680;2023-04-26T03:06:12;3.60;;;2.40;;
70049;SDS011;57391;51.306;22.680;2023-04-26T03:08:39;2.80;;;1.70;;
70049;SDS011;57391;51.306;22.680;2023-04-26T03:11:07;2.70;;;1.60;;
70049;SDS011;57391;51.306;22.680;2023-04-26T03:13:34;3.30;;;1.70;;
70049;SDS011;57391;51.306;22.680;2023-04-26T03:16:01;2.90;;;1.80;;
70049;SDS011;57391;51.306;22.680;2023-04-26T03:18:28;3.50;;;1.80;;
70049;SDS011;57391;51.306;22.680;2023-04-26T03:20:56;3.60;;;1.80;;
70049;SDS011;57391;51.306;22.680;2023-04-26T03:23:23;3.50;;;1.50;;
70049;SDS011;57391;51.306;22.680;2023-04-26T03:25:51;3.00;;;1.80;;
70049;SDS011;57391;51.306;22.680;2023-04-26T03:28:18;2.40;;;1.50;;
70049;SDS011;57391;51.306;22.680;2023-04-26T03:30:45;3.50;;;1.70;;
70049;SDS011;57391;51.306;22.680;2023-04-26T03:33:15;3.60;;;1.90;;
70049;SDS011;57391;51.306;22.680;2023-04-26T03:35:43;3.90;;;2.00;;
70049;SDS011;57391;51.306;22.680;2023-04-26T03:38:10;3.50;;;1.80;;
70049;SDS011;57391;51.306;22.680;2023-04-26T03:40:38;2.70;;;1.40;;
70049;SDS011;57391;51.306;22.680;2023-04-26T03:43:05;3.10;;;1.00;;
70049;SDS011;57391;51.306;22.680;2023-04-26T03:45:32;2.30;;;1.10;;
70049;SDS011;57391;51.306;22.680;2023-04-26T03:48:00;8.30;;;2.50;;
70049;SDS011;57391;51.306;22.680;2023-04-26T03:50:27;10.30;;;3.00;;
70049;SDS011;57391;51.306;22.680;2023-04-26T03:52:54;10.60;;;3.70;;
70049;SDS011;57391;51.306;22.680;2023-04-26T03:55:22;11.00;;;3.50;;
70049;SDS011;57391;51.306;22.680;2023-04-26T03:57:50;4.30;;;2.10;;
70049;SDS011;57391;51.306;22.680;2023-04-26T04:00:19;3.20;;;1.80;;
70049;SDS011;57391;51.306;22.680;2023-04-26T04:02:47;2.50;;;1.20;;
70049;SDS011;57391;51.306;22.680;2023-04-26T04:05:20;1.80;;;1.30;;
70049;SDS011;57391;51.306;22.680;2023-04-26T04:07:47;1.60;;;1.00;;
70049;SDS011;57391;51.306;22.680;2023-04-26T04:10:14;5.40;;;1.20;;
70049;SDS011;57391;51.306;22.680;2023-04-26T04:12:43;3.00;;;1.40;;
70049;SDS011;57391;51.306;22.680;2023-04-26T04:15:10;2.40;;;1.30;;
70049;SDS011;57391;51.306;22.680;2023-04-26T04:17:41;2.80;;;1.30;;
70049;SDS011;57391;51.306;22.680;2023-04-26T04:20:08;2.80;;;1.40;;
70049;SDS011;57391;51.306;22.680;2023-04-26T04:22:36;3.20;;;1.60;;
70049;SDS011;57391;51.306;22.680;2023-04-26T04:25:08;3.60;;;1.60;;
70049;SDS011;57391;51.306;22.680;2023-04-26T04:27:41;4.10;;;1.70;;
70049;SDS011;57391;51.306;22.680;2023-04-26T04:30:09;4.30;;;2.40;;
70049;SDS011;57391;51.306;22.680;2023-04-26T04:32:38;4.80;;;2.50;;
70049;SDS011;57391;51.306;22.680;2023-04-26T04:35:06;5.30;;;2.60;;
70049;SDS011;57391;51.306;22.680;2023-04-26T04:37:33;5.40;;;2.30;;
70049;SDS011;57391;51.306;22.680;2023-04-26T04:40:01;3.90;;;2.30;;
70049;SDS011;57391;51.306;22.680;2023-04-26T04:42:30;4.60;;;2.30;;
70049;SDS011;57391;51.306;22.680;2023-04-26T04:44:58;4.50;;;2.20;;
70049;SDS011;57391;51.306;22.680;2023-04-26T04:47:26;3.40;;;1.60;;
70049;SDS011;57391;51.306;22.680;2023-04-26T04:49:54;4.50;;;1.90;;
70049;SDS011;57391;51.306;22.680;2023-04-26T04:52:22;5.10;;;2.10;;
70049;SDS011;57391;51.306;22.680;2023-04-26T04:54:49;5.10;;;1.90;;
70049;SDS011;57391;51.306;22.680;2023-04-26T04:57:16;5.20;;;2.10;;
70049;SDS011;57391;51.306;22.680;2023-04-26T04:59:45;3.90;;;1.80;;
70049;SDS011;57391;51.306;22.680;2023-04-26T05:02:11;5.30;;;1.80;;
70049;SDS011;57391;51.306;22.680;2023-04-26T05:04:39;3.90;;;2.00;;
70049;SDS011;57391;51.306;22.680;2023-04-26T05:07:06;5.60;;;1.90;;
70049;SDS011;57391;51.306;22.680;2023-04-26T05:09:34;5.60;;;2.10;;
70049;SDS011;57391;51.306;22.680;2023-04-26T05:12:03;7.00;;;2.40;;
70049;SDS011;57391;51.306;22.680;2023-04-26T05:14:31;5.40;;;2.00;;
70049;SDS011;57391;51.306;22.680;2023-04-26T05:16:58;4.50;;;2.10;;
70049;SDS011;57391;51.306;22.680;2023-04-26T05:19:25;4.90;;;2.00;;
70049;SDS011;57391;51.306;22.680;2023-04-26T05:21:53;6.30;;;2.50;;
70049;SDS011;57391;51.306;22.680;2023-04-26T05:24:20;4.70;;;1.90;;
70049;SDS011;57391;51.306;22.680;2023-04-26T05:26:47;6.10;;;1.90;;
70049;SDS011;57391;51.306;22.680;2023-04-26T05:29:32;4.60;;;1.70;;
70049;SDS011;57391;51.306;22.680;2023-04-26T05:32:21;5.70;;;2.00;;
70049;SDS011;57391;51.306;22.680;2023-04-26T05:35:02;5.90;;;2.10;;
70049;SDS011;57391;51.306;22.680;2023-04-26T05:37:30;7.30;;;1.90;;
70049;SDS011;57391;51.306;22.680;2023-04-26T05:39:57;4.50;;;2.10;;
70049;SDS011;57391;51.306;22.680;2023-04-26T05:42:24;6.10;;;1.90;;
70049;SDS011;57391;51.306;22.680;2023-04-26T05:44:58;6.80;;;2.00;;
70049;SDS011;57391;51.306;22.680;2023-04-26T05:47:27;5.30;;;2.30;;
70049;SDS011;57391;51.306;22.680;2023-04-26T05:49:54;6.60;;;2.10;;
70049;SDS011;57391;51.306;22.680;2023-04-26T05:52:21;5.30;;;2.10;;
70049;SDS011;57391;51.306;22.680;2023-04-26T05:54:48;5.20;;;1.80;;
70049;SDS011;57391;51.306;22.680;2023-04-26T05:57:15;4.20;;;2.00;;
70049;SDS011;57391;51.306;22.680;2023-04-26T05:59:44;7.80;;;2.20;;
70049;SDS011;57391;51.306;22.680;2023-04-26T06:02:11;5.60;;;2.10;;
70049;SDS011;57391;51.306;22.680;2023-04-26T06:04:39;5.70;;;2.10;;
70049;SDS011;57391;51.306;22.680;2023-04-26T06:07:10;7.10;;;2.20;;
70049;SDS011;57391;51.306;22.680;2023-04-26T06:09:37;7.90;;;2.60;;
70049;SDS011;57391;51.306;22.680;2023-04-26T06:12:04;6.20;;;2.60;;
70049;SDS011;57391;51.306;22.680;2023-04-26T06:14:34;5.10;;;2.00;;
70049;SDS011;57391;51.306;22.680;2023-04-26T06:17:05;8.00;;;2.00;;
70049;SDS011;57391;51.306;22.680;2023-04-26T06:19:32;5.40;;;2.30;;
70049;SDS011;57391;51.306;22.680;2023-04-26T06:21:59;8.90;;;2.70;;
70049;SDS011;57391;51.306;22.680;2023-04-26T06:24:26;6.90;;;2.40;;
70049;SDS011;57391;51.306;22.680;2023-04-26T06:26:53;7.40;;;2.50;;
70049;SDS011;57391;51.306;22.680;2023-04-26T06:29:20;6.90;;;2.30;;
70049;SDS011;57391;51.306;22.680;2023-04-26T06:31:48;7.50;;;2.40;;
70049;SDS011;57391;51.306;22.680;2023-04-26T06:34:15;7.90;;;2.70;;
70049;SDS011;57391;51.306;22.680;2023-04-26T06:36:42;6.60;;;2.30;;
70049;SDS011;57391;51.306;22.680;2023-04-26T06:39:10;6.90;;;2.60;;
70049;SDS011;57391;51.306;22.680;2023-04-26T06:41:38;6.70;;;2.30;;
70049;SDS011;57391;51.306;22.680;2023-04-26T06:44:05;16.20;;;2.40;;
70049;SDS011;57391;51.306;22.680;2023-04-26T06:46:32;7.50;;;2.50;;
70049;SDS011;57391;51.306;22.680;2023-04-26T06:49:00;8.20;;;2.50;;
70049;SDS011;57391;51.306;22.680;2023-04-26T06:51:27;7.80;;;2.60;;
70049;SDS011;57391;51.306;22.680;2023-04-26T06:53:55;6.80;;;2.50;;
70049;SDS011;57391;51.306;22.680;2023-04-26T06:56:24;9.30;;;2.70;;
70049;SDS011;57391;51.306;22.680;2023-04-26T06:59:02;8.10;;;2.70;;
70049;SDS011;57391;51.306;22.680;2023-04-26T07:01:31;7.80;;;2.70;;
70049;SDS011;57391;51.306;22.680;2023-04-26T07:04:03;10.00;;;2.70;;
70049;SDS011;57391;51.306;22.680;2023-04-26T07:06:37;7.60;;;2.20;;
70049;SDS011;57391;51.306;22.680;2023-04-26T07:09:04;7.30;;;2.80;;
70049;SDS011;57391;51.306;22.680;2023-04-26T07:11:32;6.60;;;2.80;;
70049;SDS011;57391;51.306;22.680;2023-04-26T07:13:59;8.80;;;2.90;;
70049;SDS011;57391;51.306;22.680;2023-04-26T07:16:27;6.90;;;2.90;;
70049;SDS011;57391;51.306;22.680;2023-04-26T07:18:55;8.10;;;2.60;;
70049;SDS011;57391;51.306;22.680;2023-04-26T07:21:25;7.80;;;3.10;;
70049;SDS011;57391;51.306;22.680;2023-04-26T07:23:56;8.70;;;3.00;;
70049;SDS011;57391;51.306;22.680;2023-04-26T07:26:25;7.80;;;3.30;;
70049;SDS011;57391;51.306;22.680;2023-04-26T07:28:52;9.80;;;3.20;;
70049;SDS011;57391;51.306;22.680;2023-04-26T07:31:20;9.50;;;2.90;;
70049;SDS011;57391;51.306;22.680;2023-04-26T07:33:47;6.30;;;3.20;;
70049;SDS011;57391;51.306;22.680;2023-04-26T07:36:14;9.60;;;3.50;;
70049;SDS011;57391;51.306;22.680;2023-04-26T07:38:41;9.20;;;3.50;;
70049;SDS011;57391;51.306;22.680;2023-04-26T07:41:09;9.80;;;3.40;;
70049;SDS011;57391;51.306;22.680;2023-04-26T07:43:38;8.40;;;3.10;;
70049;SDS011;57391;51.306;22.680;2023-04-26T07:46:05;9.50;;;3.10;;
70049;SDS011;57391;51.306;22.680;2023-04-26T07:48:32;9.00;;;3.50;;
70049;SDS011;57391;51.306;22.680;2023-04-26T07:51:08;9.40;;;3.40;;
70049;SDS011;57391;51.306;22.680;2023-04-26T07:53:40;8.90;;;3.50;;
70049;SDS011;57391;51.306;22.680;2023-04-26T07:56:08;9.90;;;3.70;;
70049;SDS011;57391;51.306;22.680;2023-04-26T07:58:36;7.80;;;3.40;;
70049;SDS011;57391;51.306;22.680;2023-04-26T08:01:05;8.70;;;3.40;;
70049;SDS011;57391;51.306;22.680;2023-04-26T08:03:33;7.60;;;3.40;;
70049;SDS011;57391;51.306;22.680;2023-04-26T08:06:00;11.80;;;4.00;;
70049;SDS011;57391;51.306;22.680;2023-04-26T08:08:28;12.80;;;6.40;;
70049;SDS011;57391;51.306;22.680;2023-04-26T08:10:55;13.00;;;5.00;;
70049;SDS011;57391;51.306;22.680;2023-04-26T08:13:22;12.50;;;4.00;;
70049;SDS011;57391;51.306;22.680;2023-04-26T08:15:50;8.50;;;3.70;;
70049;SDS011;57391;51.306;22.680;2023-04-26T08:18:17;9.40;;;3.90;;
70049;SDS011;57391;51.306;22.680;2023-04-26T08:20:44;11.30;;;4.10;;
70049;SDS011;57391;51.306;22.680;2023-04-26T08:23:11;8.10;;;3.30;;
70049;SDS011;57391;51.306;22.680;2023-04-26T08:25:40;9.70;;;4.20;;
70049;SDS011;57391;51.306;22.680;2023-04-26T08:28:07;9.90;;;4.20;;
70049;SDS011;57391;51.306;22.680;2023-04-26T08:30:34;8.60;;;4.40;;
70049;SDS011;57391;51.306;22.680;2023-04-26T08:33:02;10.10;;;4.30;;
70049;SDS011;57391;51.306;22.680;2023-04-26T08:35:29;11.50;;;5.40;;
70049;SDS011;57391;51.306;22.680;2023-04-26T08:37:56;11.10;;;4.60;;
70049;SDS011;57391;51.306;22.680;2023-04-26T08:40:24;10.60;;;4.20;;
70049;SDS011;57391;51.306;22.680;2023-04-26T08:42:51;12.90;;;4.40;;
70049;SDS011;57391;51.306;22.680;2023-04-26T08:45:20;9.40;;;4.20;;
70049;SDS011;57391;51.306;22.680;2023-04-26T08:47:52;7.70;;;3.80;;
70049;SDS011;57391;51.306;22.680;2023-04-26T08:50:22;10.40;;;4.80;;
70049;SDS011;57391;51.306;22.680;2023-04-26T08:52:50;11.60;;;6.00;;
70049;SDS011;57391;51.306;22.680;2023-04-26T08:55:19;13.00;;;5.00;;
70049;SDS011;57391;51.306;22.680;2023-04-26T08:57:49;8.50;;;3.70;;
70049;SDS011;57391;51.306;22.680;2023-04-26T09:00:17;10.80;;;3.40;;
70049;SDS011;57391;51.306;22.680;2023-04-26T09:02:50;12.70;;;5.00;;
70049;SDS011;57391;51.306;22.680;2023-04-26T09:05:18;9.90;;;5.00;;
70049;SDS011;57391;51.306;22.680;2023-04-26T09:07:51;12.00;;;4.10;;
70049;SDS011;57391;51.306;22.680;2023-04-26T09:10:22;10.20;;;4.00;;
70049;SDS011;57391;51.306;22.680;2023-04-26T09:12:51;9.80;;;3.60;;
70049;SDS011;57391;51.306;22.680;2023-04-26T09:15:23;11.90;;;3.60;;
70049;SDS011;57391;51.306;22.680;2023-04-26T09:17:53;7.70;;;3.80;;
70049;SDS011;57391;51.306;22.680;2023-04-26T09:20:28;8.60;;;3.40;;
70049;SDS011;57391;51.306;22.680;2023-04-26T09:23:05;7.80;;;3.40;;
70049;SDS011;57391;51.306;22.680;2023-04-26T09:25:35;8.60;;;3.50;;
70049;SDS011;57391;51.306;22.680;2023-04-26T09:28:18;7.50;;;3.20;;
70049;SDS011;57391;51.306;22.680;2023-04-26T09:31:03;12.20;;;3.50;;
70049;SDS011;57391;51.306;22.680;2023-04-26T09:33:59;7.10;;;3.20;;
70049;SDS011;57391;51.306;22.680;2023-04-26T09:36:32;7.40;;;3.10;;
70049;SDS011;57391;51.306;22.680;2023-04-26T09:39:12;8.00;;;2.90;;
70049;SDS011;57391;51.306;22.680;2023-04-26T09:41:42;9.30;;;4.10;;
70049;SDS011;57391;51.306;22.680;2023-04-26T09:44:20;11.20;;;3.40;;
70049;SDS011;57391;51.306;22.680;2023-04-26T09:47:02;12.10;;;7.20;;
70049;SDS011;57391;51.306;22.680;2023-04-26T09:49:46;10.30;;;4.60;;
70049;SDS011;57391;51.306;22.680;2023-04-26T09:52:18;4.50;;;2.10;;
70049;SDS011;57391;51.306;22.680;2023-04-26T09:54:50;6.70;;;2.00;;
70049;SDS011;57391;51.306;22.680;2023-04-26T09:57:21;8.40;;;2.00;;
70049;SDS011;57391;51.306;22.680;2023-04-26T09:59:51;9.00;;;2.60;;
70049;SDS011;57391;51.306;22.680;2023-04-26T10:02:24;7.50;;;2.30;;
70049;SDS011;57391;51.306;22.680;2023-04-26T10:04:57;5.60;;;2.10;;
70049;SDS011;57391;51.306;22.680;2023-04-26T10:07:32;7.30;;;2.10;;
70049;SDS011;57391;51.306;22.680;2023-04-26T10:10:00;6.60;;;1.70;;
70049;SDS011;57391;51.306;22.680;2023-04-26T10:12:29;7.10;;;2.00;;
70049;SDS011;57391;51.306;22.680;2023-04-26T10:14:56;6.00;;;1.80;;
70049;SDS011;57391;51.306;22.680;2023-04-26T10:17:24;4.80;;;1.90;;
70049;SDS011;57391;51.306;22.680;2023-04-26T10:19:55;9.20;;;4.50;;
70049;SDS011;57391;51.306;22.680;2023-04-26T10:22:39;13.70;;;6.10;;
70049;SDS011;57391;51.306;22.680;2023-04-26T10:25:12;9.50;;;4.10;;
70049;SDS011;57391;51.306;22.680;2023-04-26T10:30:14;6.10;;;1.70;;
70049;SDS011;57391;51.306;22.680;2023-04-26T10:35:27;8.40;;;2.00;;
70049;SDS011;57391;51.306;22.680;2023-04-26T10:40:32;7.70;;;1.90;;
70049;SDS011;57391;51.306;22.680;2023-04-26T10:45:45;4.70;;;1.60;;
70049;SDS011;57391;51.306;22.680;2023-04-26T10:48:14;13.40;;;5.70;;
70049;SDS011;57391;51.306;22.680;2023-04-26T10:59:10;7.50;;;1.90;;
70049;SDS011;57391;51.306;22.680;2023-04-26T11:01:44;9.70;;;2.50;;
70049;SDS011;57391;51.306;22.680;2023-04-26T11:04:12;5.20;;;1.30;;
70049;SDS011;57391;51.306;22.680;2023-04-26T11:06:50;6.60;;;1.90;;
70049;SDS011;57391;51.306;22.680;2023-04-26T11:12:27;6.60;;;1.70;;
70049;SDS011;57391;51.306;22.680;2023-04-26T11:14:54;6.20;;;2.10;;
70049;SDS011;57391;51.306;22.680;2023-04-26T11:17:38;28.50;;;11.00;;
70049;SDS011;57391;51.306;22.680;2023-04-26T11:20:08;16.60;;;7.20;;
70049;SDS011;57391;51.306;22.680;2023-04-26T11:22:39;7.20;;;2.10;;
70049;SDS011;57391;51.306;22.680;2023-04-26T11:25:08;6.60;;;3.10;;
70049;SDS011;57391;51.306;22.680;2023-04-26T11:27:38;7.90;;;2.40;;
70049;SDS011;57391;51.306;22.680;2023-04-26T11:30:06;7.80;;;3.30;;
70049;SDS011;57391;51.306;22.680;2023-04-26T11:32:39;7.30;;;2.50;;
70049;SDS011;57391;51.306;22.680;2023-04-26T11:35:07;8.40;;;3.10;;
70049;SDS011;57391;51.306;22.680;2023-04-26T11:37:35;8.00;;;3.20;;
70049;SDS011;57391;51.306;22.680;2023-04-26T11:40:12;7.30;;;2.70;;
70049;SDS011;57391;51.306;22.680;2023-04-26T11:42:45;7.50;;;1.90;;
70049;SDS011;57391;51.306;22.680;2023-04-26T11:45:16;5.40;;;1.60;;
70049;SDS011;57391;51.306;22.680;2023-04-26T11:47:45;9.30;;;2.10;;
70049;SDS011;57391;51.306;22.680;2023-04-26T11:50:21;7.60;;;2.90;;
70049;SDS011;57391;51.306;22.680;2023-04-26T11:53:06;6.40;;;2.50;;
70049;SDS011;57391;51.306;22.680;2023-04-26T11:55:34;7.60;;;2.40;;
70049;SDS011;57391;51.306;22.680;2023-04-26T11:58:12;8.20;;;2.30;;
70049;SDS011;57391;51.306;22.680;2023-04-26T12:00:59;4.70;;;1.60;;
70049;SDS011;57391;51.306;22.680;2023-04-26T12:03:31;6.20;;;2.50;;
70049;SDS011;57391;51.306;22.680;2023-04-26T12:06:03;5.30;;;1.90;;
70049;SDS011;57391;51.306;22.680;2023-04-26T12:08:32;5.90;;;2.30;;
70049;SDS011;57391;51.306;22.680;2023-04-26T12:11:02;6.50;;;2.00;;
70049;SDS011;57391;51.306;22.680;2023-04-26T12:13:38;4.60;;;2.00;;
70049;SDS011;57391;51.306;22.680;2023-04-26T12:16:08;5.20;;;2.30;;
70049;SDS011;57391;51.306;22.680;2023-04-26T12:18:39;6.00;;;2.10;;
70049;SDS011;57391;51.306;22.680;2023-04-26T12:21:07;4.80;;;1.90;;
70049;SDS011;57391;51.306;22.680;2023-04-26T12:23:38;5.90;;;2.10;;
70049;SDS011;57391;51.306;22.680;2023-04-26T12:26:06;9.90;;;2.10;;
70049;SDS011;57391;51.306;22.680;2023-04-26T12:28:36;6.80;;;2.30;;
70049;SDS011;57391;51.306;22.680;2023-04-26T12:31:04;6.70;;;1.70;;
70049;SDS011;57391;51.306;22.680;2023-04-26T12:33:34;5.90;;;1.70;;
70049;SDS011;57391;51.306;22.680;2023-04-26T12:36:06;4.00;;;1.50;;
70049;SDS011;57391;51.306;22.680;2023-04-26T12:38:37;4.30;;;1.50;;
70049;SDS011;57391;51.306;22.680;2023-04-26T12:41:05;5.80;;;1.50;;
70049;SDS011;57391;51.306;22.680;2023-04-26T12:43:32;5.20;;;1.80;;
70049;SDS011;57391;51.306;22.680;2023-04-26T12:46:00;6.40;;;2.00;;
70049;SDS011;57391;51.306;22.680;2023-04-26T12:48:28;6.80;;;1.80;;
70049;SDS011;57391;51.306;22.680;2023-04-26T12:50:55;4.50;;;1.60;;
70049;SDS011;57391;51.306;22.680;2023-04-26T12:53:22;4.80;;;1.90;;
70049;SDS011;57391;51.306;22.680;2023-04-26T12:55:49;5.50;;;1.60;;
70049;SDS011;57391;51.306;22.680;2023-04-26T12:58:17;4.80;;;1.70;;
70049;SDS011;57391;51.306;22.680;2023-04-26T13:00:44;6.60;;;1.60;;
70049;SDS011;57391;51.306;22.680;2023-04-26T13:03:11;5.60;;;1.40;;
70049;SDS011;57391;51.306;22.680;2023-04-26T13:05:42;5.60;;;2.00;;
70049;SDS011;57391;51.306;22.680;2023-04-26T13:08:10;5.10;;;1.70;;
70049;SDS011;57391;51.306;22.680;2023-04-26T13:10:37;3.90;;;1.70;;
70049;SDS011;57391;51.306;22.680;2023-04-26T13:13:04;6.50;;;1.70;;
70049;SDS011;57391;51.306;22.680;2023-04-26T13:15:32;5.40;;;1.50;;
70049;SDS011;57391;51.306;22.680;2023-04-26T13:17:59;5.20;;;1.50;;
70049;SDS011;57391;51.306;22.680;2023-04-26T13:20:27;3.70;;;1.50;;
70049;SDS011;57391;51.306;22.680;2023-04-26T13:22:54;4.10;;;1.60;;
70049;SDS011;57391;51.306;22.680;2023-04-26T13:25:21;6.30;;;1.90;;
70049;SDS011;57391;51.306;22.680;2023-04-26T13:27:49;6.30;;;1.60;;
70049;SDS011;57391;51.306;22.680;2023-04-26T13:30:22;7.90;;;2.00;;
70049;SDS011;57391;51.306;22.680;2023-04-26T13:33:56;6.00;;;1.40;;
70049;SDS011;57391;51.306;22.680;2023-04-26T13:36:24;6.10;;;1.50;;
70049;SDS011;57391;51.306;22.680;2023-04-26T13:38:51;6.40;;;2.00;;
70049;SDS011;57391;51.306;22.680;2023-04-26T13:41:19;3.40;;;1.50;;
70049;SDS011;57391;51.306;22.680;2023-04-26T13:43:46;7.40;;;1.60;;
70049;SDS011;57391;51.306;22.680;2023-04-26T13:46:13;7.10;;;1.70;;
70049;SDS011;57391;51.306;22.680;2023-04-26T13:48:40;3.20;;;1.60;;
70049;SDS011;57391;51.306;22.680;2023-04-26T13:51:08;7.60;;;1.80;;
70049;SDS011;57391;51.306;22.680;2023-04-26T13:53:35;7.50;;;1.80;;
70049;SDS011;57391;51.306;22.680;2023-04-26T13:56:03;3.70;;;1.30;;
70049;SDS011;57391;51.306;22.680;2023-04-26T13:58:31;5.20;;;1.60;;
70049;SDS011;57391;51.306;22.680;2023-04-26T14:00:58;8.20;;;2.10;;
70049;SDS011;57391;51.306;22.680;2023-04-26T14:03:25;5.90;;;1.90;;
70049;SDS011;57391;51.306;22.680;2023-04-26T14:05:53;5.80;;;1.60;;
70049;SDS011;57391;51.306;22.680;2023-04-26T14:08:22;7.00;;;1.50;;
70049;SDS011;57391;51.306;22.680;2023-04-26T14:10:49;4.20;;;1.30;;
70049;SDS011;57391;51.306;22.680;2023-04-26T14:13:16;9.40;;;2.00;;
70049;SDS011;57391;51.306;22.680;2023-04-26T14:15:44;5.70;;;1.70;;
70049;SDS011;57391;51.306;22.680;2023-04-26T14:18:12;4.60;;;1.50;;
70049;SDS011;57391;51.306;22.680;2023-04-26T14:20:39;5.60;;;2.00;;
70049;SDS011;57391;51.306;22.680;2023-04-26T14:23:07;5.90;;;1.90;;
70049;SDS011;57391;51.306;22.680;2023-04-26T14:25:34;8.60;;;2.20;;
70049;SDS011;57391;51.306;22.680;2023-04-26T14:28:02;5.50;;;1.70;;
70049;SDS011;57391;51.306;22.680;2023-04-26T14:30:29;5.10;;;1.60;;
70049;SDS011;57391;51.306;22.680;2023-04-26T14:32:57;6.10;;;1.80;;
70049;SDS011;57391;51.306;22.680;2023-04-26T14:35:24;5.10;;;1.50;;
70049;SDS011;57391;51.306;22.680;2023-04-26T14:37:52;5.20;;;1.60;;
70049;SDS011;57391;51.306;22.680;2023-04-26T14:40:19;8.00;;;2.40;;
70049;SDS011;57391;51.306;22.680;2023-04-26T14:42:46;6.40;;;1.80;;
70049;SDS011;57391;51.306;22.680;2023-04-26T14:45:14;8.30;;;2.00;;
70049;SDS011;57391;51.306;22.680;2023-04-26T14:47:42;5.40;;;1.80;;
70049;SDS011;57391;51.306;22.680;2023-04-26T14:50:09;6.30;;;2.40;;
70049;SDS011;57391;51.306;22.680;2023-04-26T14:52:39;5.50;;;1.50;;
70049;SDS011;57391;51.306;22.680;2023-04-26T14:55:07;7.20;;;2.10;;
70049;SDS011;57391;51.306;22.680;2023-04-26T14:57:34;4.50;;;1.50;;
70049;SDS011;57391;51.306;22.680;2023-04-26T15:00:02;4.30;;;1.50;;
70049;SDS011;57391;51.306;22.680;2023-04-26T15:02:33;5.00;;;1.40;;
70049;SDS011;57391;51.306;22.680;2023-04-26T15:05:00;7.60;;;1.80;;
70049;SDS011;57391;51.306;22.680;2023-04-26T15:07:29;6.00;;;2.00;;